createdAt,value
2023-04-24T00:03:34.148Z,0.50
2023-04-24T00:08:56.267Z,0.30
2023-04-24T00:14:00.597Z,0.30
2023-04-24T00:19:03.444Z,0.40
2023-04-24T00:24:06.526Z,0.30
2023-04-24T00:29:10.706Z,0.30
2023-04-24T00:34:34.442Z,1.10
2023-04-24T00:39:37.323Z,0.25
2023-04-24T00:44:43.066Z,0.30
2023-04-24T00:49:46.097Z,0.30
2023-04-24T00:54:49.164Z,0.30
2023-04-24T01:00:12.915Z,0.25
2023-04-24T01:05:18.320Z,0.40
2023-04-24T01:10:21.440Z,0.40
2023-04-24T01:15:25.719Z,0.40
2023-04-24T01:20:32.908Z,0.40
2023-04-24T01:25:46.193Z,0.80
2023-04-24T01:30:49.140Z,0.30
2023-04-24T01:36:05.589Z,0.40
2023-04-24T01:41:09.933Z,0.30
2023-04-24T01:46:15.060Z,0.30
2023-04-24T01:51:20.739Z,0.60
2023-04-24T01:56:25.025Z,0.30
2023-04-24T02:01:36.875Z,0.87
2023-04-24T02:06:39.730Z,0.60
2023-04-24T02:11:43.906Z,0.50
2023-04-24T02:16:56.958Z,0.50
2023-04-24T02:21:59.881Z,0.40
2023-04-24T02:27:18.341Z,0.50
2023-04-24T02:32:21.192Z,0.50
2023-04-24T02:37:23.965Z,0.70
2023-04-24T02:42:35.587Z,0.40
2023-04-24T02:47:38.440Z,0.30
2023-04-24T02:52:42.352Z,0.30
2023-04-24T02:57:46.517Z,0.30
2023-04-24T03:02:50.514Z,0.47
2023-04-24T03:08:09.668Z,0.35
2023-04-24T03:13:13.899Z,0.30
2023-04-24T03:18:35.754Z,0.55
2023-04-24T03:23:40.004Z,0.57
2023-04-24T03:28:45.198Z,0.50
2023-04-24T03:33:59.257Z,0.60
2023-04-24T03:39:02.240Z,0.30
2023-04-24T03:44:10.354Z,0.30
2023-04-24T03:49:13.624Z,0.77
2023-04-24T03:54:20.220Z,0.50
2023-04-24T03:59:24.408Z,0.50
2023-04-24T04:04:41.606Z,0.40
2023-04-24T04:09:46.227Z,0.40
2023-04-24T04:14:50.423Z,0.40
2023-04-24T04:19:53.419Z,0.40
2023-04-24T04:24:58.450Z,1.15
2023-04-24T04:30:05.784Z,0.52
2023-04-24T04:35:15.881Z,0.30
2023-04-24T04:40:19.447Z,1.00
2023-04-24T04:45:29.796Z,0.70
2023-04-24T04:50:51.286Z,0.53
2023-04-24T04:55:56.433Z,0.45
2023-04-24T05:01:05.933Z,0.60
2023-04-24T05:06:14.080Z,0.40
2023-04-24T05:11:17.702Z,0.20
2023-04-24T05:16:22.471Z,0.70
2023-04-24T05:21:27.832Z,0.73
2023-04-24T05:26:31.742Z,1.48
2023-04-24T05:31:37.432Z,46.20
2023-04-24T05:36:40.611Z,49.88
2023-04-24T05:41:48.073Z,54.97
2023-04-24T05:46:52.410Z,47.83
2023-04-24T05:51:55.442Z,44.33
2023-04-24T05:56:59.316Z,44.47
2023-04-24T06:02:13.518Z,44.22
2023-04-24T06:07:23.967Z,38.10
2023-04-24T06:12:27.538Z,33.45
2023-04-24T06:17:38.019Z,30.70
2023-04-24T06:22:41.474Z,29.98
2023-04-24T06:27:45.547Z,30.73
2023-04-24T06:33:12.896Z,30.10
2023-04-24T06:38:22.363Z,30.33
2023-04-24T06:43:25.195Z,30.20
2023-04-24T06:48:29.348Z,27.40
2023-04-24T06:53:32.383Z,26.02
2023-04-24T06:58:36.869Z,26.95
2023-04-24T07:03:41.228Z,24.77
2023-04-24T07:08:44.657Z,24.27
2023-04-24T07:13:47.496Z,25.40
2023-04-24T07:18:51.618Z,24.60
2023-04-24T07:24:11.887Z,22.88
2023-04-24T07:29:15.200Z,23.77
2023-04-24T07:34:21.570Z,17.25
2023-04-24T07:39:24.693Z,15.13
2023-04-24T07:44:28.173Z,14.07
2023-04-24T07:49:49.759Z,12.52
2023-04-24T07:54:53.725Z,11.80
2023-04-24T07:59:57.627Z,10.55
2023-04-24T08:05:01.963Z,11.45
2023-04-24T08:10:05.846Z,9.90
2023-04-24T08:15:25.865Z,11.07
2023-04-24T08:20:30.456Z,8.68
2023-04-24T08:25:33.382Z,9.75
2023-04-24T08:30:36.165Z,9.85
2023-04-24T08:35:40.383Z,8.55
2023-04-24T08:41:03.768Z,8.87
2023-04-24T08:46:11.135Z,8.80
2023-04-24T08:51:16.765Z,8.73
2023-04-24T08:56:19.780Z,7.38
2023-04-24T09:01:22.758Z,7.80
2023-04-24T09:06:40.724Z,7.60
2023-04-24T09:11:43.630Z,7.57
2023-04-24T09:16:46.646Z,7.20
2023-04-24T09:21:50.781Z,6.50
2023-04-24T09:27:00.366Z,6.18
2023-04-24T09:32:22.569Z,7.33
2023-04-24T09:37:37.759Z,6.40
2023-04-24T09:42:40.775Z,6.10
2023-04-24T09:47:43.631Z,6.15
2023-04-24T09:52:49.314Z,5.03
2023-04-24T09:57:53.635Z,5.60
2023-04-24T10:02:57.374Z,4.80
2023-04-24T10:08:03.830Z,3.53
2023-04-24T10:13:07.823Z,4.10
2023-04-24T10:18:11.261Z,4.60
2023-04-24T10:23:28.325Z,4.82
2023-04-24T10:28:33.892Z,4.80
2023-04-24T10:33:37.190Z,4.37
2023-04-24T10:38:43.820Z,3.55
2023-04-24T10:43:46.692Z,2.63
2023-04-24T10:49:07.783Z,2.67
2023-04-24T10:54:25.852Z,3.10
2023-04-24T10:59:29.890Z,3.33
2023-04-24T11:04:34.470Z,3.70
2023-04-24T11:09:41.422Z,3.90
2023-04-24T11:15:03.606Z,3.38
2023-04-24T11:20:26.062Z,2.60
2023-04-24T11:25:32.740Z,2.20
2023-04-24T11:30:36.348Z,5.27
2023-04-24T11:35:42.560Z,5.27
2023-04-24T11:40:47.033Z,5.75
2023-04-24T11:45:50.957Z,3.93
2023-04-24T11:50:53.982Z,4.53
2023-04-24T11:55:58.232Z,4.55
2023-04-24T12:01:02.141Z,4.03
2023-04-24T12:06:09.301Z,4.32
2023-04-24T12:11:13.702Z,6.55
2023-04-24T12:16:16.653Z,6.20
2023-04-24T12:21:22.702Z,6.70
2023-04-24T12:26:27.709Z,6.35
2023-04-24T12:31:33.280Z,6.05
2023-04-24T12:36:37.379Z,5.72
2023-04-24T12:41:52.491Z,6.32
2023-04-24T12:47:16.115Z,7.10
2023-04-24T12:52:18.984Z,6.95
2023-04-24T12:57:23.412Z,7.87
2023-04-24T13:02:27.057Z,8.38
2023-04-24T13:07:30.112Z,8.10
2023-04-24T13:12:54.598Z,7.70
2023-04-24T13:17:57.498Z,9.05
2023-04-24T13:23:01.097Z,8.82
2023-04-24T13:28:05.756Z,9.38
2023-04-24T13:33:08.669Z,9.00
2023-04-24T13:38:32.140Z,9.82
2023-04-24T13:43:36.446Z,9.25
2023-04-24T13:48:39.300Z,8.98
2023-04-24T13:53:42.258Z,8.75
2023-04-24T13:58:46.823Z,9.15
2023-04-24T14:04:10.191Z,10.70
2023-04-24T14:09:13.722Z,9.68
2023-04-24T14:14:20.223Z,9.00
2023-04-24T14:19:23.059Z,8.60
2023-04-24T14:24:26.023Z,8.02
2023-04-24T14:29:50.633Z,8.52
2023-04-24T14:34:53.645Z,8.05
2023-04-24T14:40:14.758Z,8.37
2023-04-24T14:45:20.912Z,9.47
2023-04-24T14:50:24.844Z,9.65
2023-04-24T14:55:27.911Z,8.97
2023-04-24T15:00:32.061Z,8.33
2023-04-24T15:05:35.286Z,7.00
2023-04-24T15:10:38.611Z,8.25
2023-04-24T15:15:42.897Z,7.00
2023-04-24T15:20:59.333Z,7.47
2023-04-24T15:26:02.700Z,7.70
2023-04-24T15:31:07.025Z,7.63
2023-04-24T15:36:10.131Z,7.18
2023-04-24T15:41:13.343Z,7.30
2023-04-24T15:46:36.518Z,7.93
2023-04-24T15:51:39.530Z,4.80
2023-04-24T15:56:42.501Z,5.63
2023-04-24T16:01:46.701Z,5.80
2023-04-24T16:06:49.607Z,7.13
2023-04-24T16:12:09.312Z,7.72
2023-04-24T16:17:13.913Z,8.77
2023-04-24T16:22:17.981Z,9.38
2023-04-24T16:27:21.105Z,7.75
2023-04-24T16:32:25.601Z,8.82
2023-04-24T16:37:43.733Z,8.40
2023-04-24T16:42:47.577Z,9.00
2023-04-24T16:47:51.820Z,8.20
2023-04-24T16:52:54.663Z,7.45
2023-04-24T16:57:57.725Z,7.90
2023-04-24T17:03:20.513Z,5.30
2023-04-24T17:08:23.839Z,4.50
2023-04-24T17:13:27.012Z,5.03
2023-04-24T17:18:31.317Z,5.60
2023-04-24T17:23:35.147Z,5.50
2023-04-24T17:28:56.000Z,7.23
2023-04-24T17:34:00.225Z,7.47
2023-04-24T17:39:03.779Z,6.72
2023-04-24T17:44:06.897Z,7.33
2023-04-24T17:49:11.190Z,8.40
2023-04-24T17:54:33.961Z,6.93
2023-04-24T17:59:36.854Z,6.90
2023-04-24T18:04:43.092Z,6.97
2023-04-24T18:09:46.480Z,8.55
2023-04-24T18:14:50.349Z,6.63
2023-04-24T18:20:08.020Z,7.22
2023-04-24T18:25:11.992Z,7.37
2023-04-24T18:30:15.096Z,6.55
2023-04-24T18:35:19.716Z,7.40
2023-04-24T18:40:22.780Z,6.97
2023-04-24T18:45:45.879Z,6.40
2023-04-24T18:50:50.083Z,5.30
2023-04-24T18:55:53.048Z,5.30
2023-04-24T19:00:56.017Z,6.43
2023-04-24T19:06:00.301Z,6.63
2023-04-24T19:11:14.471Z,6.75
2023-04-24T19:16:19.878Z,8.63
2023-04-24T19:21:24.197Z,10.00
2023-04-24T19:26:28.264Z,11.88
2023-04-24T19:31:33.440Z,12.90
2023-04-24T19:36:50.983Z,11.65
2023-04-24T19:41:54.047Z,8.63
2023-04-24T19:46:57.543Z,8.35
2023-04-24T19:52:01.720Z,8.05
2023-04-24T19:57:06.690Z,7.40
2023-04-24T20:02:23.553Z,0.32
2023-04-24T20:07:27.868Z,1.33
2023-04-24T20:12:30.775Z,1.30
2023-04-24T20:17:33.663Z,0.40
2023-04-24T20:22:38.945Z,1.23
2023-04-24T20:27:59.383Z,0.85
2023-04-24T20:33:02.270Z,0.68
2023-04-24T20:38:06.770Z,0.60
2023-04-24T20:43:10.735Z,1.48
2023-04-24T20:48:13.596Z,1.25
2023-04-24T20:53:35.201Z,0.30
2023-04-24T20:58:38.075Z,0.40
2023-04-24T21:03:41.224Z,0.80
2023-04-24T21:08:45.579Z,0.90
2023-04-24T21:13:48.673Z,0.63
2023-04-24T21:18:51.916Z,1.00
2023-04-24T21:23:56.258Z,0.82
2023-04-24T21:28:59.226Z,0.55
2023-04-24T21:34:09.391Z,1.20
2023-04-24T21:39:13.824Z,1.17
2023-04-24T21:44:16.668Z,0.60
2023-04-24T21:49:19.571Z,1.00
2023-04-24T21:54:23.875Z,0.60
2023-04-24T21:59:45.824Z,0.50
2023-04-24T22:04:48.782Z,0.57
2023-04-24T22:09:53.206Z,1.50
2023-04-24T22:14:56.102Z,1.20
2023-04-24T22:19:59.032Z,0.70
2023-04-24T22:25:21.035Z,1.35
2023-04-24T22:30:23.821Z,0.70
2023-04-24T22:35:26.780Z,1.60
2023-04-24T22:40:31.424Z,1.20
2023-04-24T22:45:34.332Z,0.70
2023-04-24T22:50:56.081Z,1.42
2023-04-24T22:56:00.299Z,3.40
2023-04-24T23:01:04.211Z,0.30
2023-04-24T23:06:07.477Z,0.50
2023-04-24T23:11:11.819Z,0.57
2023-04-24T23:16:30.940Z,0.40
2023-04-24T23:21:34.206Z,0.80
2023-04-24T23:26:38.417Z,0.73
2023-04-24T23:31:41.573Z,0.50
2023-04-24T23:36:44.451Z,1.30
2023-04-24T23:42:07.703Z,0.90
2023-04-24T23:47:10.523Z,2.00
2023-04-24T23:52:13.387Z,1.33
2023-04-24T23:57:17.505Z,1.55
